Time;durP1;ratioP1;P1;durP2;ratioP2;P2;SDS_P1;SDS_P2;PMS_P1;PMS_P2;Temp;Humidity;BMP_temperature;BMP_pressure;BME280_temperature;BME280_humidity;BME280_pressure;Samples;Min_cycle;Max_cycle;Signal;HPM_P1;HPM_P2
2023/06/17 00:00:59;;;;;;;10.90;9.80;;;14.80;99.90;;;;;;5012582;28;20049;-37
2023/06/17 00:03:25;;;;;;;10.55;9.48;;;14.70;99.90;;;;;;5012357;28;20044;-34
2023/06/17 00:05:54;;;;;;;10.20;9.30;;;14.70;99.90;;;;;;5010721;28;20108;-34
2023/06/17 00:08:20;;;;;;;9.77;8.90;;;14.60;99.90;;;;;;5008915;28;20042;-34
2023/06/17 00:10:46;;;;;;;10.45;9.38;;;14.60;99.90;;;;;;4992766;28;20037;-34
2023/06/17 00:13:18;;;;;;;10.32;9.25;;;14.60;99.90;;;;;;5006693;28;20552;-34
2023/06/17 00:15:56;;;;;;;12.45;10.07;;;14.50;99.90;;;;;;5009256;28;20041;-37
2023/06/17 00:18:24;;;;;;;10.23;9.23;;;14.50;99.90;;;;;;4995279;28;20202;-36
2023/06/17 00:20:53;;;;;;;11.20;9.20;;;14.40;99.90;;;;;;5010659;28;20034;-34
2023/06/17 00:23:21;;;;;;;10.43;9.18;;;14.40;99.90;;;;;;5013379;28;20680;-34
2023/06/17 00:25:48;;;;;;;11.25;9.73;;;14.40;99.90;;;;;;5017396;28;20038;-38
2023/06/17 00:28:13;;;;;;;12.75;9.98;;;14.30;99.90;;;;;;5010787;28;20479;-34
2023/06/17 00:30:39;;;;;;;12.50;10.80;;;14.30;99.90;;;;;;5012767;28;20034;-35
2023/06/17 00:33:05;;;;;;;12.75;10.80;;;14.30;99.90;;;;;;5010327;28;20122;-36
2023/06/17 00:35:31;;;;;;;11.45;10.25;;;14.30;99.90;;;;;;5010583;28;20045;-36
2023/06/17 00:37:56;;;;;;;10.68;9.63;;;14.30;99.90;;;;;;5018633;28;20034;-38
2023/06/17 00:40:22;;;;;;;11.93;10.05;;;14.30;99.90;;;;;;5016336;28;20281;-34
2023/06/17 00:42:48;;;;;;;13.55;10.05;;;14.30;99.90;;;;;;5023934;28;20064;-32
2023/06/17 00:45:13;;;;;;;12.65;10.10;;;14.30;99.90;;;;;;4996337;28;20085;-38
2023/06/17 00:47:40;;;;;;;11.25;9.88;;;14.30;99.90;;;;;;5014243;28;20123;-35
2023/06/17 00:50:12;;;;;;;11.80;10.60;;;14.20;99.90;;;;;;5012979;28;20499;-41
2023/06/17 00:52:39;;;;;;;10.90;9.88;;;14.20;99.90;;;;;;5015232;28;20392;-40
2023/06/17 00:55:08;;;;;;;12.15;11.05;;;14.10;99.90;;;;;;5012735;28;20099;-37
2023/06/17 00:57:35;;;;;;;12.02;10.88;;;14.20;99.90;;;;;;4991145;28;20497;-32
2023/06/17 01:00:03;;;;;;;12.27;10.98;;;14.10;99.90;;;;;;4994247;28;20450;-32
2023/06/17 01:02:29;;;;;;;12.77;10.80;;;14.10;99.90;;;;;;4991948;28;20046;-32
2023/06/17 01:04:57;;;;;;;13.55;12.15;;;14.10;99.90;;;;;;5016884;28;20036;-32
2023/06/17 01:07:23;;;;;;;14.52;11.93;;;14.10;99.90;;;;;;5016036;28;20037;-32
2023/06/17 01:09:55;;;;;;;14.52;12.23;;;14.10;99.90;;;;;;5010052;28;20037;-32
2023/06/17 01:12:26;;;;;;;12.68;11.38;;;14.10;99.90;;;;;;5009059;28;20095;-32
2023/06/17 01:14:57;;;;;;;14.05;11.60;;;14.10;99.90;;;;;;4991851;28;20298;-32
2023/06/17 01:17:23;;;;;;;14.80;12.05;;;14.10;99.90;;;;;;5012214;28;20073;-33
2023/06/17 01:19:50;;;;;;;16.80;12.93;;;14.00;99.90;;;;;;4995562;28;20049;-32
2023/06/17 01:22:17;;;;;;;15.48;12.93;;;14.00;99.90;;;;;;5009285;28;20096;-32
2023/06/17 01:24:45;;;;;;;13.02;11.82;;;14.00;99.90;;;;;;5008489;28;20682;-32
2023/06/17 01:27:11;;;;;;;16.45;12.45;;;14.10;99.90;;;;;;4992346;28;20042;-32
2023/06/17 01:29:40;;;;;;;13.93;12.52;;;14.00;99.90;;;;;;5008982;28;20048;-33
2023/06/17 01:32:06;;;;;;;15.57;13.95;;;14.00;99.90;;;;;;5015054;28;20112;-32
2023/06/17 01:35:03;;;;;;;13.55;12.15;;;14.00;99.90;;;;;;4993690;28;20052;-32
2023/06/17 01:37:45;;;;;;;16.23;13.38;;;14.10;99.90;;;;;;4993749;28;20075;-35
2023/06/17 01:40:13;;;;;;;15.02;13.32;;;14.10;99.90;;;;;;5003107;28;20128;-33
2023/06/17 01:42:45;;;;;;;14.48;13.00;;;14.30;99.90;;;;;;5002360;28;20049;-33
2023/06/17 01:45:12;;;;;;;16.63;14.82;;;14.40;99.90;;;;;;5005148;28;20045;-34
2023/06/17 01:47:39;;;;;;;15.50;13.80;;;14.40;99.90;;;;;;5009588;28;20053;-33
2023/06/17 01:50:06;;;;;;;16.25;14.50;;;14.50;99.90;;;;;;5008292;28;20038;-33
2023/06/17 01:52:32;;;;;;;15.85;13.85;;;14.60;99.90;;;;;;5010485;28;20070;-33
2023/06/17 01:54:58;;;;;;;16.38;13.90;;;14.70;99.90;;;;;;5001345;28;20066;-33
2023/06/17 01:57:25;;;;;;;18.27;15.48;;;14.80;99.90;;;;;;5008984;28;20074;-33
2023/06/17 01:59:55;;;;;;;17.83;15.50;;;14.90;99.90;;;;;;5007603;28;20088;-32
2023/06/17 02:02:22;;;;;;;15.63;14.13;;;14.90;99.90;;;;;;5008860;28;20548;-33
2023/06/17 02:04:48;;;;;;;17.83;14.48;;;15.00;99.90;;;;;;5008886;28;20041;-33
2023/06/17 02:07:18;;;;;;;21.70;17.20;;;15.00;99.90;;;;;;5008208;28;20049;-33
2023/06/17 02:09:46;;;;;;;20.13;16.60;;;15.00;99.90;;;;;;5008280;28;20460;-33
2023/06/17 02:12:12;;;;;;;22.73;16.55;;;15.00;99.90;;;;;;5008620;28;20042;-33
2023/06/17 02:14:38;;;;;;;19.52;16.35;;;15.10;99.90;;;;;;4997945;28;20096;-33
2023/06/17 02:17:04;;;;;;;20.23;16.77;;;15.20;99.90;;;;;;5008666;28;20041;-33
2023/06/17 02:19:31;;;;;;;25.77;18.02;;;15.20;99.90;;;;;;5002279;28;20130;-33
2023/06/17 02:21:58;;;;;;;18.85;16.83;;;15.20;99.90;;;;;;5008712;28;20232;-33
2023/06/17 02:24:24;;;;;;;23.98;17.30;;;15.20;99.90;;;;;;5003275;28;20049;-33
2023/06/17 02:26:50;;;;;;;26.05;18.02;;;15.30;99.90;;;;;;5013740;28;20407;-33
2023/06/17 02:29:16;;;;;;;22.70;17.23;;;15.30;99.90;;;;;;5008820;28;20038;-33
2023/06/17 02:31:42;;;;;;;21.30;17.80;;;15.30;99.90;;;;;;5008157;28;20041;-33
2023/06/17 02:34:07;;;;;;;25.75;18.42;;;15.30;99.90;;;;;;5016652;28;20033;-34
2023/06/17 02:36:33;;;;;;;22.52;19.63;;;15.40;99.90;;;;;;5013932;28;20125;-33
2023/06/17 02:38:59;;;;;;;24.73;19.58;;;15.40;99.90;;;;;;5011687;28;20052;-38
2023/06/17 02:41:25;;;;;;;25.20;18.48;;;15.40;99.90;;;;;;5012104;28;20042;-33
2023/06/17 02:43:51;;;;;;;27.90;20.27;;;15.30;99.90;;;;;;4993533;28;20406;-33
2023/06/17 02:46:17;;;;;;;25.90;19.50;;;15.30;99.90;;;;;;4994329;28;20053;-33
2023/06/17 02:48:42;;;;;;;25.20;20.80;;;15.30;99.90;;;;;;5013953;28;20125;-33
2023/06/17 02:51:09;;;;;;;24.63;20.48;;;15.30;99.90;;;;;;5012138;28;20121;-33
2023/06/17 02:53:34;;;;;;;27.02;19.65;;;15.30;99.90;;;;;;4987743;28;20050;-33
2023/06/17 02:56:00;;;;;;;25.38;20.73;;;15.20;99.90;;;;;;5013064;28;20487;-33
2023/06/17 02:58:26;;;;;;;24.40;20.27;;;15.20;99.90;;;;;;4994555;28;20656;-33
2023/06/17 03:00:55;;;;;;;23.40;19.98;;;15.30;99.90;;;;;;4993522;28;20048;-33
2023/06/17 03:03:26;;;;;;;26.95;21.88;;;15.30;99.90;;;;;;5011156;28;20033;-33
2023/06/17 03:05:52;;;;;;;26.45;20.52;;;15.30;99.90;;;;;;5011446;28;20056;-33
2023/06/17 03:08:18;;;;;;;27.30;20.52;;;15.30;99.90;;;;;;5011165;28;20120;-33
2023/06/17 03:10:44;;;;;;;24.42;19.63;;;15.40;99.90;;;;;;5010706;28;20042;-33
2023/06/17 03:13:10;;;;;;;27.55;20.65;;;15.30;99.90;;;;;;4993889;28;20050;-33
2023/06/17 03:15:35;;;;;;;25.50;20.27;;;15.40;99.90;;;;;;5014011;28;20046;-33
2023/06/17 03:18:01;;;;;;;26.58;21.55;;;15.30;99.90;;;;;;5011008;28;20112;-33
2023/06/17 03:20:28;;;;;;;25.25;21.90;;;15.30;99.90;;;;;;5007779;28;20049;-34
2023/06/17 03:22:55;;;;;;;27.08;20.40;;;15.30;99.90;;;;;;4993044;28;20038;-33
2023/06/17 03:25:22;;;;;;;25.90;22.33;;;15.30;99.90;;;;;;5011189;28;20644;-33
2023/06/17 03:27:47;;;;;;;29.25;22.52;;;15.30;99.90;;;;;;5011048;28;20041;-33
2023/06/17 03:30:13;;;;;;;28.75;22.10;;;15.20;99.90;;;;;;5011289;28;20103;-33
2023/06/17 03:32:39;;;;;;;31.70;21.10;;;15.20;99.90;;;;;;5010745;28;20042;-33
2023/06/17 03:35:06;;;;;;;30.85;24.40;;;15.20;99.90;;;;;;5010888;28;20029;-33
2023/06/17 03:37:31;;;;;;;29.55;21.92;;;15.20;99.90;;;;;;5013110;28;20042;-35
2023/06/17 03:39:57;;;;;;;25.52;20.92;;;15.20;99.90;;;;;;5010846;28;20042;-33
2023/06/17 03:42:22;;;;;;;27.42;21.45;;;15.20;99.90;;;;;;4992837;28;20610;-33
2023/06/17 03:44:48;;;;;;;29.30;22.55;;;15.20;99.90;;;;;;5014994;28;20124;-33
2023/06/17 03:47:14;;;;;;;30.33;22.45;;;15.20;99.90;;;;;;5016867;28;20038;-34
2023/06/17 03:49:39;;;;;;;31.52;23.30;;;15.30;99.90;;;;;;5014518;28;20112;-32
2023/06/17 03:52:05;;;;;;;31.38;22.95;;;15.30;99.90;;;;;;4993070;28;20034;-33
2023/06/17 03:54:32;;;;;;;32.67;23.67;;;15.30;99.90;;;;;;5010074;28;20074;-33
2023/06/17 03:56:58;;;;;;;33.78;22.95;;;15.20;99.90;;;;;;5010646;28;20030;-34
2023/06/17 03:59:23;;;;;;;33.25;23.88;;;15.10;99.90;;;;;;5014335;28;20242;-33
2023/06/17 04:01:49;;;;;;;35.45;25.58;;;15.20;99.90;;;;;;5011099;28;20025;-34
2023/06/17 04:04:15;;;;;;;31.45;23.13;;;15.10;99.90;;;;;;5009738;28;20038;-33
2023/06/17 04:06:40;;;;;;;30.13;22.83;;;15.10;99.90;;;;;;4993160;28;20188;-33
2023/06/17 04:09:06;;;;;;;28.42;21.73;;;15.10;99.90;;;;;;4995048;28;20046;-33
2023/06/17 04:11:32;;;;;;;27.70;21.50;;;15.10;99.90;;;;;;5010157;28;20073;-34
2023/06/17 04:13:59;;;;;;;33.03;23.42;;;15.10;99.90;;;;;;5010531;28;20048;-33
2023/06/17 04:16:24;;;;;;;27.58;21.90;;;15.10;99.90;;;;;;5015848;28;20527;-33
2023/06/17 04:18:52;;;;;;;28.88;22.42;;;15.20;99.90;;;;;;5011982;28;20078;-33
2023/06/17 04:21:18;;;;;;;28.73;21.90;;;15.20;99.90;;;;;;5009903;28;20042;-33
2023/06/17 04:23:44;;;;;;;29.05;22.52;;;15.30;99.90;;;;;;5000136;28;20045;-33
2023/06/17 04:26:12;;;;;;;27.77;21.67;;;15.30;99.90;;;;;;5020942;28;20076;-33
2023/06/17 04:28:38;;;;;;;28.02;22.73;;;15.40;99.90;;;;;;4992730;28;20077;-33
2023/06/17 04:31:04;;;;;;;27.30;22.52;;;15.40;99.90;;;;;;5010994;28;20076;-33
2023/06/17 04:33:37;;;;;;;32.22;24.05;;;15.40;99.90;;;;;;5010037;28;20042;-34
2023/06/17 04:36:08;;;;;;;27.55;23.02;;;15.40;99.90;;;;;;5015535;28;20034;-36
2023/06/17 04:38:39;;;;;;;29.08;23.70;;;15.40;99.90;;;;;;5012533;28;20034;-33
2023/06/17 04:41:05;;;;;;;28.85;23.05;;;15.50;99.90;;;;;;5014219;28;20675;-33
2023/06/17 04:43:33;;;;;;;34.13;24.77;;;15.50;99.90;;;;;;5003796;28;20045;-34
2023/06/17 04:46:01;;;;;;;32.90;24.80;;;15.40;99.90;;;;;;4981805;28;20038;-33
2023/06/17 04:48:29;;;;;;;30.83;24.52;;;15.30;99.90;;;;;;5003888;28;20081;-34
2023/06/17 04:50:58;;;;;;;45.60;25.30;;;15.40;99.90;;;;;;4996150;28;20046;-35
2023/06/17 04:53:26;;;;;;;32.58;23.35;;;15.30;99.90;;;;;;5003183;28;20046;-33
2023/06/17 04:55:52;;;;;;;32.25;23.83;;;15.40;99.90;;;;;;5003372;28;20037;-34
2023/06/17 04:58:18;;;;;;;28.42;21.27;;;15.40;99.90;;;;;;5008141;28;20041;-33
2023/06/17 05:00:44;;;;;;;29.83;21.77;;;15.40;99.90;;;;;;5005958;28;20046;-34
2023/06/17 05:03:09;;;;;;;24.27;20.67;;;15.40;99.90;;;;;;5008440;28;20042;-33
2023/06/17 05:05:35;;;;;;;26.67;22.02;;;15.40;99.90;;;;;;5001543;28;20057;-35
2023/06/17 05:08:01;;;;;;;27.85;21.67;;;15.40;99.90;;;;;;5008853;28;20383;-33
2023/06/17 05:10:26;;;;;;;25.83;20.90;;;15.40;99.90;;;;;;5018975;28;20072;-33
2023/06/17 05:12:52;;;;;;;27.90;20.02;;;15.40;99.90;;;;;;5009356;28;20104;-34
2023/06/17 05:15:17;;;;;;;28.13;21.00;;;15.50;99.90;;;;;;5014030;28;20514;-33
2023/06/17 05:17:43;;;;;;;26.10;20.10;;;15.60;99.90;;;;;;5009148;28;20038;-33
2023/06/17 05:20:09;;;;;;;24.77;19.70;;;15.60;99.90;;;;;;5008311;28;20076;-34
2023/06/17 05:22:35;;;;;;;22.58;18.98;;;15.50;99.90;;;;;;5008517;28;20041;-33
2023/06/17 05:25:00;;;;;;;26.00;19.55;;;15.50;99.90;;;;;;5009226;28;20036;-33
2023/06/17 05:27:26;;;;;;;22.10;18.65;;;15.70;99.90;;;;;;5009212;28;20450;-33
2023/06/17 05:29:52;;;;;;;20.02;17.85;;;15.70;99.90;;;;;;5015790;28;20077;-33
2023/06/17 05:32:18;;;;;;;21.17;17.70;;;15.80;99.90;;;;;;5012389;28;20411;-33
2023/06/17 05:34:44;;;;;;;21.23;17.02;;;15.80;99.90;;;;;;5007339;28;20044;-33
2023/06/17 05:37:09;;;;;;;20.85;17.08;;;15.80;99.90;;;;;;5008209;28;20033;-33
2023/06/17 05:39:35;;;;;;;22.65;18.25;;;15.90;99.90;;;;;;4991048;28;20042;-33
2023/06/17 05:42:01;;;;;;;23.83;18.15;;;15.90;99.90;;;;;;5008146;28;20092;-34
2023/06/17 05:44:26;;;;;;;21.33;17.58;;;16.00;99.90;;;;;;5006323;28;20092;-33
2023/06/17 05:46:52;;;;;;;20.58;18.25;;;16.00;99.90;;;;;;4986159;28;20038;-34
2023/06/17 05:49:18;;;;;;;22.00;18.30;;;16.10;99.90;;;;;;5009855;28;20038;-33
2023/06/17 05:51:43;;;;;;;22.58;19.75;;;15.90;99.90;;;;;;5004545;28;20046;-35
2023/06/17 05:54:09;;;;;;;21.00;17.40;;;15.90;99.90;;;;;;4984390;28;20064;-33
2023/06/17 05:56:34;;;;;;;20.85;18.65;;;15.90;99.90;;;;;;5008530;28;20744;-33
2023/06/17 05:59:00;;;;;;;19.98;17.20;;;15.80;99.90;;;;;;5003632;28;20113;-33
2023/06/17 06:01:26;;;;;;;23.00;17.00;;;15.90;99.90;;;;;;5005980;28;20038;-33
2023/06/17 06:03:51;;;;;;;20.67;17.17;;;16.00;99.90;;;;;;5001193;28;20061;-34
2023/06/17 06:06:17;;;;;;;21.85;18.58;;;15.90;99.90;;;;;;5000332;28;20077;-33
2023/06/17 06:08:43;;;;;;;21.92;18.45;;;15.90;99.90;;;;;;5000972;28;20065;-34
2023/06/17 06:11:08;;;;;;;20.58;17.33;;;15.90;99.90;;;;;;5003626;28;20073;-33
2023/06/17 06:13:34;;;;;;;20.15;16.65;;;16.00;99.90;;;;;;5006297;28;20453;-33
2023/06/17 06:16:00;;;;;;;22.55;18.00;;;16.10;99.90;;;;;;5010856;28;20194;-33
2023/06/17 06:18:27;;;;;;;21.13;17.83;;;16.10;99.90;;;;;;4992346;28;20041;-33
2023/06/17 06:20:53;;;;;;;19.65;17.55;;;16.10;99.90;;;;;;5010782;28;20493;-33
2023/06/17 06:23:19;;;;;;;20.33;18.15;;;16.20;99.90;;;;;;5001277;28;20070;-33
2023/06/17 06:25:45;;;;;;;22.58;18.17;;;16.20;99.90;;;;;;4983230;28;20092;-33
2023/06/17 06:28:10;;;;;;;19.63;17.02;;;16.30;99.90;;;;;;5006382;28;20479;-34
2023/06/17 06:30:36;;;;;;;23.75;18.65;;;16.30;99.90;;;;;;5004041;28;20064;-33
2023/06/17 06:33:02;;;;;;;21.73;18.00;;;16.40;99.90;;;;;;5002382;28;20347;-33
2023/06/17 06:35:28;;;;;;;25.10;19.52;;;16.40;99.90;;;;;;5004961;28;20116;-33
2023/06/17 06:37:53;;;;;;;21.60;19.27;;;16.40;99.90;;;;;;4991858;28;20113;-33
2023/06/17 06:40:19;;;;;;;22.70;19.67;;;16.50;99.90;;;;;;5007973;28;20468;-33
2023/06/17 06:42:45;;;;;;;19.73;17.63;;;16.60;99.90;;;;;;5007985;28;20102;-33
2023/06/17 06:45:11;;;;;;;22.27;19.85;;;16.70;99.90;;;;;;5006610;28;20029;-34
2023/06/17 06:47:37;;;;;;;25.60;20.10;;;16.80;99.90;;;;;;4981056;28;20044;-33
2023/06/17 06:50:03;;;;;;;22.88;19.25;;;16.90;99.90;;;;;;5008838;28;20034;-33
2023/06/17 06:52:28;;;;;;;22.02;19.73;;;17.00;99.90;;;;;;5005417;28;20393;-33
2023/06/17 06:54:54;;;;;;;23.48;19.02;;;17.10;99.90;;;;;;5011382;28;20402;-33
2023/06/17 06:57:20;;;;;;;20.67;18.27;;;17.10;99.90;;;;;;5005622;28;20070;-33
2023/06/17 06:59:46;;;;;;;25.55;20.42;;;17.30;99.90;;;;;;5008091;28;20060;-33
2023/06/17 07:02:11;;;;;;;23.15;19.83;;;17.40;99.90;;;;;;4994784;28;20057;-33
2023/06/17 07:04:37;;;;;;;24.63;20.73;;;17.30;99.90;;;;;;5011055;28;20041;-33
2023/06/17 07:07:04;;;;;;;23.67;20.92;;;17.40;99.90;;;;;;5011446;28;20026;-33
2023/06/17 07:09:32;;;;;;;21.33;19.08;;;17.50;99.90;;;;;;5014456;28;20453;-33
2023/06/17 07:11:58;;;;;;;23.98;18.73;;;17.60;99.90;;;;;;5012832;28;20034;-33
2023/06/17 07:14:24;;;;;;;22.20;18.60;;;17.80;99.90;;;;;;5011448;28;20415;-33
2023/06/17 07:16:49;;;;;;;22.20;19.23;;;17.80;99.90;;;;;;4991587;28;20508;-33
2023/06/17 07:19:15;;;;;;;22.08;19.55;;;17.90;99.90;;;;;;5012713;28;20045;-33
2023/06/17 07:21:41;;;;;;;23.08;19.88;;;18.10;99.90;;;;;;4999652;28;20034;-33
2023/06/17 07:24:06;;;;;;;22.77;18.77;;;18.20;99.90;;;;;;5011114;28;20129;-34
2023/06/17 07:26:32;;;;;;;22.50;18.80;;;18.40;99.90;;;;;;5008328;28;20044;-33
2023/06/17 07:29:00;;;;;;;24.17;20.55;;;18.50;99.90;;;;;;5010920;28;20480;-35
2023/06/17 07:31:28;;;;;;;22.77;19.13;;;18.60;99.90;;;;;;5004358;28;20052;-34
2023/06/17 07:33:54;;;;;;;21.92;19.52;;;18.70;99.90;;;;;;5012113;28;20103;-33
2023/06/17 07:36:20;;;;;;;24.88;18.73;;;18.70;99.90;;;;;;5004983;28;20117;-33
2023/06/17 07:38:46;;;;;;;20.73;18.42;;;18.80;99.90;;;;;;5005405;28;20124;-35
2023/06/17 07:41:12;;;;;;;22.50;20.20;;;18.80;99.90;;;;;;5010467;28;20042;-33
2023/06/17 07:43:41;;;;;;;23.25;19.30;;;18.90;99.90;;;;;;5010761;28;20545;-34
2023/06/17 07:46:06;;;;;;;21.70;18.15;;;18.90;99.90;;;;;;5009591;28;20026;-34
2023/06/17 07:48:32;;;;;;;21.35;19.05;;;19.20;99.90;;;;;;5020794;28;20104;-33
2023/06/17 07:50:57;;;;;;;19.48;17.13;;;19.40;99.90;;;;;;5011690;28;20033;-33
2023/06/17 07:53:23;;;;;;;20.40;18.30;;;19.40;99.90;;;;;;5013741;28;20046;-33
2023/06/17 07:55:49;;;;;;;20.08;17.67;;;19.60;99.90;;;;;;5011142;28;20045;-34
2023/06/17 07:58:15;;;;;;;20.90;18.67;;;19.70;99.90;;;;;;5011045;28;20122;-33
2023/06/17 08:00:40;;;;;;;23.63;17.08;;;19.90;99.90;;;;;;5010707;28;20488;-33
2023/06/17 08:03:06;;;;;;;20.95;17.88;;;20.00;99.90;;;;;;5009498;28;20026;-34
2023/06/17 08:05:32;;;;;;;21.90;17.60;;;20.20;99.90;;;;;;5009336;28;20036;-33
2023/06/17 08:07:57;;;;;;;20.15;18.05;;;20.30;99.90;;;;;;5010044;28;20037;-34
2023/06/17 08:10:23;;;;;;;22.77;19.50;;;20.40;99.90;;;;;;5013196;28;20053;-35
2023/06/17 08:12:49;;;;;;;20.80;18.60;;;20.40;99.90;;;;;;5013341;28;20038;-33
2023/06/17 08:15:14;;;;;;;21.77;19.50;;;20.50;99.90;;;;;;5011293;28;20045;-33
2023/06/17 08:17:40;;;;;;;23.48;20.63;;;20.60;99.90;;;;;;5009689;28;20041;-36
2023/06/17 08:20:09;;;;;;;19.83;17.90;;;20.60;99.90;;;;;;5004481;28;20038;-35
2023/06/17 08:22:36;;;;;;;21.85;19.55;;;20.70;99.90;;;;;;5006030;28;20365;-34
2023/06/17 08:25:03;;;;;;;21.83;19.63;;;20.80;99.90;;;;;;5008290;28;20096;-35
2023/06/17 08:27:28;;;;;;;23.98;18.83;;;20.90;99.90;;;;;;5006877;28;20496;-37
2023/06/17 08:29:54;;;;;;;21.70;19.00;;;21.00;99.90;;;;;;5010649;28;20123;-36
2023/06/17 08:32:20;;;;;;;20.55;18.40;;;20.90;99.90;;;;;;5013697;28;20108;-33
2023/06/17 08:34:46;;;;;;;20.17;17.80;;;21.10;99.90;;;;;;5005137;28;20113;-33
2023/06/17 08:37:11;;;;;;;19.67;17.75;;;21.30;99.90;;;;;;5009292;28;20042;-33
2023/06/17 08:39:39;;;;;;;18.90;17.05;;;21.20;99.90;;;;;;5008345;28;20042;-40
2023/06/17 08:42:06;;;;;;;20.55;18.55;;;21.50;99.90;;;;;;5009536;28;20041;-37
2023/06/17 08:44:35;;;;;;;18.55;16.75;;;21.70;99.90;;;;;;5008038;28;20033;-34
2023/06/17 08:47:04;;;;;;;20.17;18.20;;;21.90;99.90;;;;;;5005914;28;20040;-36
2023/06/17 08:49:30;;;;;;;20.10;18.13;;;21.90;99.90;;;;;;5008390;28;20101;-34
2023/06/17 08:52:00;;;;;;;19.75;17.50;;;22.00;99.90;;;;;;5005720;28;20104;-35
2023/06/17 08:54:30;;;;;;;19.08;17.15;;;22.10;99.90;;;;;;4983318;28;20061;-35
2023/06/17 08:56:56;;;;;;;19.05;17.25;;;22.20;99.90;;;;;;5007162;28;20026;-35
2023/06/17 08:59:22;;;;;;;20.92;18.83;;;22.50;99.90;;;;;;5007128;28;20461;-38
2023/06/17 09:01:52;;;;;;;19.23;17.23;;;22.30;99.90;;;;;;5008319;28;20029;-37
2023/06/17 09:04:19;;;;;;;17.65;15.75;;;22.40;99.90;;;;;;5010137;28;20206;-36
2023/06/17 09:06:47;;;;;;;17.27;15.48;;;22.70;99.90;;;;;;4992446;28;20045;-37
2023/06/17 09:09:12;;;;;;;18.80;16.80;;;23.10;99.90;;;;;;5007489;28;20513;-37
2023/06/17 09:11:38;;;;;;;18.88;16.88;;;23.30;99.90;;;;;;5009301;28;20045;-36
2023/06/17 09:14:04;;;;;;;17.40;14.98;;;22.90;99.90;;;;;;5010488;28;20322;-35
2023/06/17 09:16:34;;;;;;;18.33;16.17;;;23.10;99.90;;;;;;5010090;28;20041;-35
2023/06/17 09:19:05;;;;;;;19.05;17.05;;;23.20;99.90;;;;;;5004181;28;20100;-36
2023/06/17 09:21:31;;;;;;;19.30;17.27;;;23.10;99.90;;;;;;5008840;28;20038;-34
2023/06/17 09:24:02;;;;;;;19.55;16.23;;;23.20;99.90;;;;;;5007655;28;20088;-35
2023/06/17 09:26:33;;;;;;;17.20;15.27;;;23.40;99.90;;;;;;5008162;28;20033;-36
2023/06/17 09:29:03;;;;;;;16.80;15.05;;;23.50;99.90;;;;;;5005479;28;20041;-36
2023/06/17 09:31:29;;;;;;;16.00;14.40;;;23.70;99.90;;;;;;5007447;28;20084;-37
2023/06/17 09:33:58;;;;;;;16.20;14.50;;;24.00;99.90;;;;;;5007428;28;20148;-34
2023/06/17 09:36:25;;;;;;;16.70;15.15;;;24.20;99.90;;;;;;5008841;28;20042;-36
2023/06/17 09:38:51;;;;;;;16.08;14.48;;;24.50;99.90;;;;;;5007851;28;20116;-36
2023/06/17 09:41:18;;;;;;;18.40;16.60;;;24.70;99.90;;;;;;5005476;28;20054;-46
2023/06/17 09:43:54;;;;;;;16.27;14.88;;;25.10;99.90;;;;;;5006523;28;20527;-36
2023/06/17 09:46:35;;;;;;;15.30;13.80;;;25.20;99.90;;;;;;5007077;28;20034;-39
2023/06/17 09:49:05;;;;;;;15.05;13.55;;;25.20;99.90;;;;;;5008254;28;20070;-37
2023/06/17 09:51:37;;;;;;;15.80;14.30;;;25.50;99.90;;;;;;5009312;28;20044;-35
2023/06/17 09:54:07;;;;;;;15.68;14.05;;;25.50;99.90;;;;;;5005808;28;20391;-40
2023/06/17 09:56:33;;;;;;;16.10;14.70;;;25.80;99.90;;;;;;5002772;28;20049;-37
2023/06/17 09:59:08;;;;;;;17.35;14.98;;;26.00;99.90;;;;;;5010429;28;20053;-48
2023/06/17 10:01:38;;;;;;;15.30;13.88;;;26.10;99.90;;;;;;5014168;28;20582;-44
2023/06/17 10:04:04;;;;;;;14.75;13.35;;;26.40;99.90;;;;;;5012185;28;20038;-46
2023/06/17 10:06:32;;;;;;;17.63;15.68;;;26.70;99.90;;;;;;4995050;28;20030;-44
2023/06/17 10:08:58;;;;;;;15.60;14.18;;;26.40;99.90;;;;;;5008949;28;20041;-40
2023/06/17 10:11:25;;;;;;;15.30;13.90;;;26.20;99.90;;;;;;5007720;28;20053;-39
2023/06/17 10:14:06;;;;;;;14.30;12.77;;;26.20;99.90;;;;;;5005913;28;20388;-38
2023/06/17 10:16:36;;;;;;;13.20;11.85;;;26.40;99.60;;;;;;5004966;28;20092;-40
2023/06/17 10:19:05;;;;;;;16.88;15.38;;;26.80;99.90;;;;;;5009401;28;20092;-38
2023/06/17 10:21:36;;;;;;;14.43;12.90;;;27.10;97.60;;;;;;4985215;28;20034;-42
2023/06/17 10:24:02;;;;;;;14.10;12.82;;;26.80;98.70;;;;;;4982950;28;20070;-39
2023/06/17 10:26:30;;;;;;;15.05;13.55;;;27.10;99.00;;;;;;5007999;28;20056;-37
2023/06/17 10:29:06;;;;;;;15.07;13.68;;;27.40;95.50;;;;;;5007957;28;20427;-37
2023/06/17 10:31:37;;;;;;;14.95;13.50;;;27.50;92.00;;;;;;5003575;28;20041;-39
2023/06/17 10:34:03;;;;;;;14.05;12.65;;;27.90;92.80;;;;;;5006728;28;20085;-39
2023/06/17 10:36:31;;;;;;;12.57;11.23;;;28.30;91.80;;;;;;5003968;28;20061;-44
2023/06/17 10:39:10;;;;;;;14.35;13.05;;;28.70;91.30;;;;;;5005701;28;20175;-46
2023/06/17 10:41:38;;;;;;;12.90;11.57;;;28.90;76.50;;;;;;5004085;28;20049;-37
2023/06/17 10:44:26;;;;;;;11.95;10.82;;;29.00;80.20;;;;;;5006083;28;20121;-40
2023/06/17 10:46:52;;;;;;;13.23;12.07;;;29.10;76.60;;;;;;5001764;28;20483;-41
2023/06/17 10:49:19;;;;;;;12.35;10.98;;;29.00;76.30;;;;;;5006910;28;20034;-39
2023/06/17 10:51:57;;;;;;;10.85;9.48;;;29.10;77.20;;;;;;4990760;28;20073;-39
2023/06/17 10:54:30;;;;;;;13.20;12.00;;;29.40;75.20;;;;;;4996203;28;20438;-37
2023/06/17 10:56:56;;;;;;;13.93;12.52;;;29.40;70.20;;;;;;4999805;28;20042;-38
2023/06/17 10:59:25;;;;;;;12.65;11.35;;;29.40;70.50;;;;;;5009421;28;20073;-40
2023/06/17 11:01:52;;;;;;;10.88;9.75;;;29.50;68.50;;;;;;5004454;28;20103;-36
2023/06/17 11:04:18;;;;;;;10.35;9.35;;;29.70;67.20;;;;;;5006728;28;20044;-45
2023/06/17 11:06:47;;;;;;;9.68;8.82;;;29.90;65.10;;;;;;5007535;28;20065;-39
2023/06/17 11:09:13;;;;;;;9.45;8.48;;;30.00;64.80;;;;;;5008317;28;20046;-41
2023/06/17 11:11:39;;;;;;;10.18;9.18;;;30.20;62.40;;;;;;4996638;28;20092;-40
2023/06/17 11:14:04;;;;;;;10.63;8.77;;;29.90;60.60;;;;;;5010705;28;20042;-38
2023/06/17 11:16:32;;;;;;;9.43;8.65;;;29.90;61.50;;;;;;5012408;28;20045;-39
2023/06/17 11:18:59;;;;;;;8.77;8.00;;;29.90;61.20;;;;;;5010964;28;20038;-37
2023/06/17 11:21:24;;;;;;;11.65;10.55;;;30.20;60.60;;;;;;5007584;28;20077;-41
2023/06/17 11:23:52;;;;;;;9.70;8.75;;;30.40;59.60;;;;;;5006407;28;20092;-43
2023/06/17 11:26:20;;;;;;;10.07;9.07;;;30.50;58.30;;;;;;5008664;28;20192;-41
2023/06/17 11:28:47;;;;;;;8.85;8.05;;;30.60;56.70;;;;;;5008925;28;20038;-41
2023/06/17 11:31:14;;;;;;;9.52;8.65;;;30.60;56.80;;;;;;5013649;28;20050;-42
2023/06/17 11:33:43;;;;;;;9.30;8.50;;;30.50;56.30;;;;;;5016257;28;20068;-41
2023/06/17 11:36:13;;;;;;;8.52;7.72;;;30.40;55.30;;;;;;5010500;28;20037;-42
2023/06/17 11:38:40;;;;;;;9.15;8.05;;;30.70;55.50;;;;;;5005919;28;20034;-43
2023/06/17 11:41:06;;;;;;;8.95;8.05;;;30.80;55.10;;;;;;5005436;28;20037;-42
2023/06/17 11:43:32;;;;;;;9.02;7.88;;;31.00;54.70;;;;;;4999552;28;20033;-43
2023/06/17 11:45:58;;;;;;;8.30;7.43;;;31.00;54.30;;;;;;5012385;28;20076;-43
2023/06/17 11:48:28;;;;;;;7.97;7.28;;;30.80;52.70;;;;;;5006518;28;20505;-43
2023/06/17 11:50:56;;;;;;;7.88;7.22;;;31.10;52.80;;;;;;5008073;28;20101;-44
2023/06/17 11:53:36;;;;;;;9.43;7.80;;;31.00;53.10;;;;;;4993155;28;20516;-43
2023/06/17 11:56:07;;;;;;;8.90;8.10;;;31.30;53.10;;;;;;5004367;28;20120;-43
2023/06/17 11:58:37;;;;;;;9.82;8.15;;;31.20;52.20;;;;;;5011436;28;20044;-43
2023/06/17 12:01:03;;;;;;;8.05;7.45;;;31.20;52.80;;;;;;5006284;28;20046;-44
2023/06/17 12:03:29;;;;;;;8.07;7.30;;;31.80;52.40;;;;;;5001903;28;20129;-44
2023/06/17 12:05:57;;;;;;;8.15;7.40;;;32.30;51.60;;;;;;5005812;28;21927;-43
2023/06/17 12:08:26;;;;;;;7.43;6.75;;;32.40;50.60;;;;;;4985795;28;20046;-43
2023/06/17 12:10:52;;;;;;;7.95;7.15;;;32.60;50.80;;;;;;5002168;28;20033;-44
2023/06/17 12:13:18;;;;;;;8.27;7.47;;;32.80;49.10;;;;;;5013947;28;20513;-43
2023/06/17 12:15:44;;;;;;;7.50;6.75;;;32.80;47.70;;;;;;5010754;28;20050;-41
2023/06/17 12:18:13;;;;;;;8.02;6.88;;;32.80;49.60;;;;;;5010325;28;20091;-43
2023/06/17 12:20:50;;;;;;;7.60;6.93;;;32.80;49.90;;;;;;5012095;28;20435;-44
2023/06/17 12:23:15;;;;;;;7.82;6.43;;;33.00;49.00;;;;;;5009418;28;20036;-44
2023/06/17 12:25:41;;;;;;;7.10;6.43;;;33.30;47.80;;;;;;5014998;28;20038;-44
2023/06/17 12:28:07;;;;;;;7.55;6.85;;;33.30;47.20;;;;;;5006158;28;20088;-44
2023/06/17 12:30:33;;;;;;;7.38;6.72;;;33.30;46.80;;;;;;5007854;28;20037;-43